Terminal Aerodrome Forecast
Issued by NWS

Home | Current Version | Previous Version | Text Only | Print | Product List | Glossary On
Versions: 1 2 3 4 5 6 7 8 9 10 11 12 13
000
FTUS43 KDDC 220538
TAFHYS
TAF
KHYS 220538Z 2206/2306 24008KT P6SM SCT150
     FM221000 36012KT P6SM BKN030
     FM221200 02013KT P6SM BKN015
     FM221300 02014KT P6SM SCT035
     FM221700 04015KT P6SM FEW200
     FM230300 07007KT P6SM SKC=

USA.gov is the U.S. government's official web portal to all federal, state and local government web resources and services.